sensor_id;sensor_type;location;lat;lon;timestamp;temperature;humidity
14934;DHT22;7560;51.364;12.384;2023-02-02T00:01:52;3.80;99.90
14934;DHT22;7560;51.364;12.384;2023-02-02T00:06:54;4.00;99.90
14934;DHT22;7560;51.364;12.384;2023-02-02T00:11:59;4.20;99.90
14934;DHT22;7560;51.364;12.384;2023-02-02T00:17:01;4.30;99.90
14934;DHT22;7560;51.364;12.384;2023-02-02T00:22:04;4.20;99.90
14934;DHT22;7560;51.364;12.384;2023-02-02T00:27:07;4.10;99.90
14934;DHT22;7560;51.364;12.384;2023-02-02T00:32:09;4.30;99.90
14934;DHT22;7560;51.364;12.384;2023-02-02T00:37:11;4.50;99.90
14934;DHT22;7560;51.364;12.384;2023-02-02T00:42:12;4.40;99.90
14934;DHT22;7560;51.364;12.384;2023-02-02T00:47:14;4.30;99.90
14934;DHT22;7560;51.364;12.384;2023-02-02T00:52:17;4.30;99.90
14934;DHT22;7560;51.364;12.384;2023-02-02T00:57:19;4.40;99.90
14934;DHT22;7560;51.364;12.384;2023-02-02T01:02:20;4.50;99.90
14934;DHT22;7560;51.364;12.384;2023-02-02T01:07:22;4.50;99.90
14934;DHT22;7560;51.364;12.384;2023-02-02T01:12:24;4.50;99.90
14934;DHT22;7560;51.364;12.384;2023-02-02T01:17:25;4.60;99.90
14934;DHT22;7560;51.364;12.384;2023-02-02T01:22:27;4.50;99.90
14934;DHT22;7560;51.364;12.384;2023-02-02T01:27:29;4.60;99.90
14934;DHT22;7560;51.364;12.384;2023-02-02T01:32:31;4.50;99.90
14934;DHT22;7560;51.364;12.384;2023-02-02T01:37:33;4.50;99.90
14934;DHT22;7560;51.364;12.384;2023-02-02T01:42:35;4.50;99.90
14934;DHT22;7560;51.364;12.384;2023-02-02T01:47:51;4.30;99.90
14934;DHT22;7560;51.364;12.384;2023-02-02T01:52:54;4.10;99.90
14934;DHT22;7560;51.364;12.384;2023-02-02T01:58:26;4.10;99.90
14934;DHT22;7560;51.364;12.384;2023-02-02T02:03:27;4.00;99.90
14934;DHT22;7560;51.364;12.384;2023-02-02T02:13:36;4.10;99.90
14934;DHT22;7560;51.364;12.384;2023-02-02T02:24:28;4.30;99.90
14934;DHT22;7560;51.364;12.384;2023-02-02T02:36:31;4.40;99.90
14934;DHT22;7560;51.364;12.384;2023-02-02T02:41:18;4.40;99.90
14934;DHT22;7560;51.364;12.384;2023-02-02T02:46:21;4.50;99.90
14934;DHT22;7560;51.364;12.384;2023-02-02T02:51:42;4.60;99.90
14934;DHT22;7560;51.364;12.384;2023-02-02T03:07:05;4.80;99.90
14934;DHT22;7560;51.364;12.384;2023-02-02T03:12:08;4.90;99.90
14934;DHT22;7560;51.364;12.384;2023-02-02T03:17:10;4.90;99.90
14934;DHT22;7560;51.364;12.384;2023-02-02T03:22:11;4.90;99.90
14934;DHT22;7560;51.364;12.384;2023-02-02T03:27:13;4.80;99.90
14934;DHT22;7560;51.364;12.384;2023-02-02T03:32:15;4.80;99.90
14934;DHT22;7560;51.364;12.384;2023-02-02T03:37:17;4.80;99.90
14934;DHT22;7560;51.364;12.384;2023-02-02T03:42:19;4.80;99.90
14934;DHT22;7560;51.364;12.384;2023-02-02T03:47:20;4.90;99.90
14934;DHT22;7560;51.364;12.384;2023-02-02T03:52:22;4.90;99.90
14934;DHT22;7560;51.364;12.384;2023-02-02T03:57:24;4.90;99.90
14934;DHT22;7560;51.364;12.384;2023-02-02T04:02:26;4.90;99.90
14934;DHT22;7560;51.364;12.384;2023-02-02T04:07:28;4.90;99.90
14934;DHT22;7560;51.364;12.384;2023-02-02T04:12:30;4.70;99.90
14934;DHT22;7560;51.364;12.384;2023-02-02T04:17:32;4.60;99.90
14934;DHT22;7560;51.364;12.384;2023-02-02T04:22:34;4.50;99.90
14934;DHT22;7560;51.364;12.384;2023-02-02T04:27:36;4.60;99.90
14934;DHT22;7560;51.364;12.384;2023-02-02T04:32:37;4.70;99.90
14934;DHT22;7560;51.364;12.384;2023-02-02T04:37:39;4.80;99.90
14934;DHT22;7560;51.364;12.384;2023-02-02T04:42:41;4.80;99.90
14934;DHT22;7560;51.364;12.384;2023-02-02T04:47:43;4.80;99.90
14934;DHT22;7560;51.364;12.384;2023-02-02T04:52:44;4.80;99.90
14934;DHT22;7560;51.364;12.384;2023-02-02T04:57:46;4.80;99.90
14934;DHT22;7560;51.364;12.384;2023-02-02T05:02:48;4.70;99.90
14934;DHT22;7560;51.364;12.384;2023-02-02T05:07:50;4.50;99.90
14934;DHT22;7560;51.364;12.384;2023-02-02T05:12:52;4.50;99.90
14934;DHT22;7560;51.364;12.384;2023-02-02T05:17:54;4.50;99.90
14934;DHT22;7560;51.364;12.384;2023-02-02T05:22:56;4.40;99.90
14934;DHT22;7560;51.364;12.384;2023-02-02T05:27:57;4.50;99.90
14934;DHT22;7560;51.364;12.384;2023-02-02T05:32:59;4.60;99.90
14934;DHT22;7560;51.364;12.384;2023-02-02T05:38:01;4.70;99.90
14934;DHT22;7560;51.364;12.384;2023-02-02T05:43:03;4.70;99.90
14934;DHT22;7560;51.364;12.384;2023-02-02T05:48:05;4.60;99.90
14934;DHT22;7560;51.364;12.384;2023-02-02T05:53:07;4.50;99.90
14934;DHT22;7560;51.364;12.384;2023-02-02T05:58:09;4.40;99.90
14934;DHT22;7560;51.364;12.384;2023-02-02T06:03:11;4.40;99.90
14934;DHT22;7560;51.364;12.384;2023-02-02T06:08:13;4.60;99.90
14934;DHT22;7560;51.364;12.384;2023-02-02T06:13:15;4.80;99.90
14934;DHT22;7560;51.364;12.384;2023-02-02T06:18:17;4.90;99.90
14934;DHT22;7560;51.364;12.384;2023-02-02T06:23:19;4.90;99.90
14934;DHT22;7560;51.364;12.384;2023-02-02T06:28:20;5.00;99.90
14934;DHT22;7560;51.364;12.384;2023-02-02T06:33:22;5.10;99.90
14934;DHT22;7560;51.364;12.384;2023-02-02T06:38:24;5.10;99.90
14934;DHT22;7560;51.364;12.384;2023-02-02T06:43:26;5.10;99.90
14934;DHT22;7560;51.364;12.384;2023-02-02T06:48:28;5.10;99.90
14934;DHT22;7560;51.364;12.384;2023-02-02T06:53:31;5.20;99.90
14934;DHT22;7560;51.364;12.384;2023-02-02T06:58:33;5.20;99.90
14934;DHT22;7560;51.364;12.384;2023-02-02T07:03:35;5.20;99.90
14934;DHT22;7560;51.364;12.384;2023-02-02T07:08:40;5.20;99.90
14934;DHT22;7560;51.364;12.384;2023-02-02T07:13:45;5.30;99.90
14934;DHT22;7560;51.364;12.384;2023-02-02T07:18:47;5.40;99.90
14934;DHT22;7560;51.364;12.384;2023-02-02T07:23:50;5.40;99.90
14934;DHT22;7560;51.364;12.384;2023-02-02T07:28:52;5.50;99.90
14934;DHT22;7560;51.364;12.384;2023-02-02T07:33:53;5.50;99.90
14934;DHT22;7560;51.364;12.384;2023-02-02T07:38:55;5.50;99.90
14934;DHT22;7560;51.364;12.384;2023-02-02T07:44:03;5.50;99.90
14934;DHT22;7560;51.364;12.384;2023-02-02T07:49:05;5.70;99.90
14934;DHT22;7560;51.364;12.384;2023-02-02T07:54:07;5.80;99.90
14934;DHT22;7560;51.364;12.384;2023-02-02T07:59:09;5.90;99.90
14934;DHT22;7560;51.364;12.384;2023-02-02T08:04:11;5.90;99.90
14934;DHT22;7560;51.364;12.384;2023-02-02T08:09:13;6.00;99.90
14934;DHT22;7560;51.364;12.384;2023-02-02T08:14:15;6.10;99.90
14934;DHT22;7560;51.364;12.384;2023-02-02T08:19:17;6.10;99.90
14934;DHT22;7560;51.364;12.384;2023-02-02T08:24:20;6.10;99.90
14934;DHT22;7560;51.364;12.384;2023-02-02T08:29:23;6.20;99.90
14934;DHT22;7560;51.364;12.384;2023-02-02T08:34:24;6.00;99.90
14934;DHT22;7560;51.364;12.384;2023-02-02T08:39:26;5.90;99.90
14934;DHT22;7560;51.364;12.384;2023-02-02T08:44:28;6.10;99.90
14934;DHT22;7560;51.364;12.384;2023-02-02T08:49:50;6.10;99.90
14934;DHT22;7560;51.364;12.384;2023-02-02T08:54:52;6.40;99.90
14934;DHT22;7560;51.364;12.384;2023-02-02T08:59:54;6.40;99.90
14934;DHT22;7560;51.364;12.384;2023-02-02T09:04:56;6.30;99.90
14934;DHT22;7560;51.364;12.384;2023-02-02T09:09:57;6.40;99.90
14934;DHT22;7560;51.364;12.384;2023-02-02T09:14:59;6.60;99.90
14934;DHT22;7560;51.364;12.384;2023-02-02T09:20:01;6.50;99.90
14934;DHT22;7560;51.364;12.384;2023-02-02T09:25:03;6.70;99.90
14934;DHT22;7560;51.364;12.384;2023-02-02T09:30:07;6.80;99.90
14934;DHT22;7560;51.364;12.384;2023-02-02T09:35:08;6.90;99.90
14934;DHT22;7560;51.364;12.384;2023-02-02T09:40:16;6.80;99.90
14934;DHT22;7560;51.364;12.384;2023-02-02T09:45:27;6.90;99.90
14934;DHT22;7560;51.364;12.384;2023-02-02T09:51:14;7.00;99.90
14934;DHT22;7560;51.364;12.384;2023-02-02T09:56:17;7.10;99.90
14934;DHT22;7560;51.364;12.384;2023-02-02T10:01:34;7.10;99.90
14934;DHT22;7560;51.364;12.384;2023-02-02T10:06:45;7.10;99.90
14934;DHT22;7560;51.364;12.384;2023-02-02T10:22:57;7.30;99.90
14934;DHT22;7560;51.364;12.384;2023-02-02T10:28:07;7.50;99.90
14934;DHT22;7560;51.364;12.384;2023-02-02T10:33:37;7.40;99.90
14934;DHT22;7560;51.364;12.384;2023-02-02T10:38:56;7.40;99.90
14934;DHT22;7560;51.364;12.384;2023-02-02T10:49:32;7.30;99.90
14934;DHT22;7560;51.364;12.384;2023-02-02T10:55:13;7.20;99.90
14934;DHT22;7560;51.364;12.384;2023-02-02T11:05:40;7.10;99.90
14934;DHT22;7560;51.364;12.384;2023-02-02T11:11:19;7.20;99.90
14934;DHT22;7560;51.364;12.384;2023-02-02T11:16:24;7.20;99.90
14934;DHT22;7560;51.364;12.384;2023-02-02T11:21:39;7.30;99.90
14934;DHT22;7560;51.364;12.384;2023-02-02T11:26:45;7.40;99.90
14934;DHT22;7560;51.364;12.384;2023-02-02T11:31:48;7.60;99.90
14934;DHT22;7560;51.364;12.384;2023-02-02T11:36:57;7.60;99.90
14934;DHT22;7560;51.364;12.384;2023-02-02T11:42:20;7.70;99.90
14934;DHT22;7560;51.364;12.384;2023-02-02T11:47:31;7.40;99.90
14934;DHT22;7560;51.364;12.384;2023-02-02T11:52:33;7.50;99.90
14934;DHT22;7560;51.364;12.384;2023-02-02T11:57:37;7.50;99.90
14934;DHT22;7560;51.364;12.384;2023-02-02T12:02:47;7.20;99.90
14934;DHT22;7560;51.364;12.384;2023-02-02T12:07:50;6.90;99.90
14934;DHT22;7560;51.364;12.384;2023-02-02T12:12:59;6.70;99.90
14934;DHT22;7560;51.364;12.384;2023-02-02T12:18:25;6.50;99.90
14934;DHT22;7560;51.364;12.384;2023-02-02T12:50:40;7.60;99.90
14934;DHT22;7560;51.364;12.384;2023-02-02T13:00:58;7.50;99.90
14934;DHT22;7560;51.364;12.384;2023-02-02T13:11:39;7.40;99.90
14934;DHT22;7560;51.364;12.384;2023-02-02T13:16:43;7.50;99.90
14934;DHT22;7560;51.364;12.384;2023-02-02T13:21:50;7.30;99.90
14934;DHT22;7560;51.364;12.384;2023-02-02T13:26:56;7.30;99.90
14934;DHT22;7560;51.364;12.384;2023-02-02T13:32:05;7.40;99.90
14934;DHT22;7560;51.364;12.384;2023-02-02T13:37:26;7.30;99.90
14934;DHT22;7560;51.364;12.384;2023-02-02T13:42:42;7.40;99.90
14934;DHT22;7560;51.364;12.384;2023-02-02T13:47:55;7.30;99.90
14934;DHT22;7560;51.364;12.384;2023-02-02T13:58:33;7.00;99.90
14934;DHT22;7560;51.364;12.384;2023-02-02T14:03:42;7.00;99.90
14934;DHT22;7560;51.364;12.384;2023-02-02T14:08:57;7.00;99.90
14934;DHT22;7560;51.364;12.384;2023-02-02T14:14:17;6.90;99.90
14934;DHT22;7560;51.364;12.384;2023-02-02T14:29:56;7.30;99.90
14934;DHT22;7560;51.364;12.384;2023-02-02T14:45:40;7.70;99.90
14934;DHT22;7560;51.364;12.384;2023-02-02T14:50:57;7.80;99.90
14934;DHT22;7560;51.364;12.384;2023-02-02T15:06:40;7.40;99.90
14934;DHT22;7560;51.364;12.384;2023-02-02T15:28:24;7.20;99.90
14934;DHT22;7560;51.364;12.384;2023-02-02T15:33:35;7.20;99.90
14934;DHT22;7560;51.364;12.384;2023-02-02T15:38:40;7.20;99.90
14934;DHT22;7560;51.364;12.384;2023-02-02T15:43:42;7.20;99.90
14934;DHT22;7560;51.364;12.384;2023-02-02T15:48:45;6.90;99.90
14934;DHT22;7560;51.364;12.384;2023-02-02T15:53:49;6.80;99.90
14934;DHT22;7560;51.364;12.384;2023-02-02T15:58:55;6.60;99.90
14934;DHT22;7560;51.364;12.384;2023-02-02T16:04:17;6.20;99.90
14934;DHT22;7560;51.364;12.384;2023-02-02T16:09:42;6.00;99.90
14934;DHT22;7560;51.364;12.384;2023-02-02T16:14:46;5.90;99.90
14934;DHT22;7560;51.364;12.384;2023-02-02T16:19:49;5.90;99.90
14934;DHT22;7560;51.364;12.384;2023-02-02T16:24:55;5.80;99.90
14934;DHT22;7560;51.364;12.384;2023-02-02T16:30:07;5.80;99.90
14934;DHT22;7560;51.364;12.384;2023-02-02T16:35:34;5.80;99.90
14934;DHT22;7560;51.364;12.384;2023-02-02T16:40:37;5.90;99.90
14934;DHT22;7560;51.364;12.384;2023-02-02T16:56:07;6.00;99.90
14934;DHT22;7560;51.364;12.384;2023-02-02T17:01:10;5.90;99.90
14934;DHT22;7560;51.364;12.384;2023-02-02T17:06:21;5.70;99.90
14934;DHT22;7560;51.364;12.384;2023-02-02T17:11:27;5.70;99.90
14934;DHT22;7560;51.364;12.384;2023-02-02T17:16:31;5.50;99.90
14934;DHT22;7560;51.364;12.384;2023-02-02T17:21:33;5.40;99.90
14934;DHT22;7560;51.364;12.384;2023-02-02T17:26:39;5.30;99.90
14934;DHT22;7560;51.364;12.384;2023-02-02T17:31:41;5.30;99.90
14934;DHT22;7560;51.364;12.384;2023-02-02T17:36:43;5.30;99.90
14934;DHT22;7560;51.364;12.384;2023-02-02T17:41:45;5.20;99.90
14934;DHT22;7560;51.364;12.384;2023-02-02T17:46:48;5.10;99.90
14934;DHT22;7560;51.364;12.384;2023-02-02T17:51:50;5.00;99.90
14934;DHT22;7560;51.364;12.384;2023-02-02T17:56:52;5.00;99.90
14934;DHT22;7560;51.364;12.384;2023-02-02T18:01:55;5.00;99.90
14934;DHT22;7560;51.364;12.384;2023-02-02T18:06:58;5.10;99.90
14934;DHT22;7560;51.364;12.384;2023-02-02T18:12:00;4.90;99.90
14934;DHT22;7560;51.364;12.384;2023-02-02T18:17:02;4.90;99.90
14934;DHT22;7560;51.364;12.384;2023-02-02T18:22:04;4.80;99.90
14934;DHT22;7560;51.364;12.384;2023-02-02T18:27:07;4.80;99.90
14934;DHT22;7560;51.364;12.384;2023-02-02T18:32:09;4.80;99.90
14934;DHT22;7560;51.364;12.384;2023-02-02T18:37:11;4.80;99.90
14934;DHT22;7560;51.364;12.384;2023-02-02T18:42:13;4.70;99.90
14934;DHT22;7560;51.364;12.384;2023-02-02T18:47:15;4.80;99.90
14934;DHT22;7560;51.364;12.384;2023-02-02T18:52:17;4.80;99.90
14934;DHT22;7560;51.364;12.384;2023-02-02T18:57:20;4.90;99.90
14934;DHT22;7560;51.364;12.384;2023-02-02T19:02:23;4.80;99.90
14934;DHT22;7560;51.364;12.384;2023-02-02T19:07:26;4.80;99.90
14934;DHT22;7560;51.364;12.384;2023-02-02T19:18:20;4.80;99.90
14934;DHT22;7560;51.364;12.384;2023-02-02T19:23:24;4.80;99.90
14934;DHT22;7560;51.364;12.384;2023-02-02T19:28:30;4.80;99.90
14934;DHT22;7560;51.364;12.384;2023-02-02T19:33:42;4.80;99.90
14934;DHT22;7560;51.364;12.384;2023-02-02T19:38:45;4.80;99.90
14934;DHT22;7560;51.364;12.384;2023-02-02T19:43:48;4.80;99.90
14934;DHT22;7560;51.364;12.384;2023-02-02T19:49:09;4.80;99.90
14934;DHT22;7560;51.364;12.384;2023-02-02T19:54:34;4.80;99.90
14934;DHT22;7560;51.364;12.384;2023-02-02T19:59:37;4.80;99.90
14934;DHT22;7560;51.364;12.384;2023-02-02T20:04:39;4.80;99.90
14934;DHT22;7560;51.364;12.384;2023-02-02T20:09:41;4.80;99.90
14934;DHT22;7560;51.364;12.384;2023-02-02T20:14:46;4.80;99.90
14934;DHT22;7560;51.364;12.384;2023-02-02T20:19:49;4.80;99.90
14934;DHT22;7560;51.364;12.384;2023-02-02T20:24:51;4.80;99.90
14934;DHT22;7560;51.364;12.384;2023-02-02T20:29:58;4.80;99.90
14934;DHT22;7560;51.364;12.384;2023-02-02T20:35:21;4.80;99.90
14934;DHT22;7560;51.364;12.384;2023-02-02T20:40:26;4.90;99.90
14934;DHT22;7560;51.364;12.384;2023-02-02T20:45:29;4.90;99.90
14934;DHT22;7560;51.364;12.384;2023-02-02T20:50:31;4.90;99.90
14934;DHT22;7560;51.364;12.384;2023-02-02T20:55:33;4.90;99.90
14934;DHT22;7560;51.364;12.384;2023-02-02T21:00:37;5.00;99.90
14934;DHT22;7560;51.364;12.384;2023-02-02T21:05:39;4.90;99.90
14934;DHT22;7560;51.364;12.384;2023-02-02T21:10:41;4.90;99.90
14934;DHT22;7560;51.364;12.384;2023-02-02T21:15:43;5.00;99.90
14934;DHT22;7560;51.364;12.384;2023-02-02T21:20:45;5.00;99.90
14934;DHT22;7560;51.364;12.384;2023-02-02T21:25:47;5.00;99.90
14934;DHT22;7560;51.364;12.384;2023-02-02T21:30:48;5.10;99.90
14934;DHT22;7560;51.364;12.384;2023-02-02T21:35:50;5.10;99.90
14934;DHT22;7560;51.364;12.384;2023-02-02T21:40:53;5.10;99.90
14934;DHT22;7560;51.364;12.384;2023-02-02T21:45:57;5.10;99.90
14934;DHT22;7560;51.364;12.384;2023-02-02T21:51:36;5.10;99.90
14934;DHT22;7560;51.364;12.384;2023-02-02T21:56:40;5.10;99.90
14934;DHT22;7560;51.364;12.384;2023-02-02T22:01:43;5.10;99.90
14934;DHT22;7560;51.364;12.384;2023-02-02T22:06:48;5.10;99.90
14934;DHT22;7560;51.364;12.384;2023-02-02T22:16:56;5.00;99.90
14934;DHT22;7560;51.364;12.384;2023-02-02T22:22:22;5.00;99.90
14934;DHT22;7560;51.364;12.384;2023-02-02T22:27:38;5.00;99.90
14934;DHT22;7560;51.364;12.384;2023-02-02T22:32:41;5.00;99.90
14934;DHT22;7560;51.364;12.384;2023-02-02T22:37:42;5.00;99.90
14934;DHT22;7560;51.364;12.384;2023-02-02T22:42:44;4.90;99.90
14934;DHT22;7560;51.364;12.384;2023-02-02T22:47:47;4.90;99.90
14934;DHT22;7560;51.364;12.384;2023-02-02T22:52:49;4.90;99.90
14934;DHT22;7560;51.364;12.384;2023-02-02T22:57:51;4.90;99.90
14934;DHT22;7560;51.364;12.384;2023-02-02T23:02:54;4.90;99.90
14934;DHT22;7560;51.364;12.384;2023-02-02T23:07:56;4.90;99.90
14934;DHT22;7560;51.364;12.384;2023-02-02T23:12:58;4.90;99.90
14934;DHT22;7560;51.364;12.384;2023-02-02T23:18:00;5.00;99.90
14934;DHT22;7560;51.364;12.384;2023-02-02T23:23:02;5.10;99.90
14934;DHT22;7560;51.364;12.384;2023-02-02T23:28:05;5.00;99.90
14934;DHT22;7560;51.364;12.384;2023-02-02T23:33:10;4.90;99.90
14934;DHT22;7560;51.364;12.384;2023-02-02T23:38:12;4.90;99.90
14934;DHT22;7560;51.364;12.384;2023-02-02T23:43:14;4.80;99.90
14934;DHT22;7560;51.364;12.384;2023-02-02T23:48:16;4.80;99.90
14934;DHT22;7560;51.364;12.384;2023-02-02T23:53:19;4.80;99.90
14934;DHT22;7560;51.364;12.384;2023-02-02T23:58:20;4.80;99.90
